< Typhoon 196217 1962 Season Typhoon 196219 >
Typhoon 196218 (BABE)
General InformationTrack Information on Google Maps || Disaster Info.ResourceGoogle EarthGE AnimationAtom FeedGeoJSON
Detalied Best Track (Time Zone = UTC)
Year Month Day Hour Lat. Long. Pressure (hPa) Wind (kt) Class Image Chart
1962 9 11 06 11.0 123.0 1008 0 2 -- Chart
1962 9 11 12 11.1 121.9 1008 0 2 -- Chart
1962 9 11 18 11.3 120.6 1008 0 2 -- Chart
1962 9 12 00 11.3 119.6 1008 0 2 -- Chart
1962 9 12 06 11.4 118.3 1006 0 2 -- Chart
1962 9 12 12 11.4 117.7 1004 0 2 -- Chart
1962 9 12 18 11.6 117.0 1004 0 2 -- Chart
1962 9 13 00 11.5 116.5 1006 0 2 -- Chart
1962 9 13 06 11.6 115.9 1006 0 2 -- Chart
1962 9 13 12 11.8 115.5 1005 0 2 -- Chart
1962 9 13 18 12.0 115.0 1006 0 2 -- Chart
1962 9 14 00 12.5 114.5 1000 0 2 -- Chart
1962 9 14 06 12.8 114.0 994 0 9 -- Chart
1962 9 14 12 13.3 113.3 994 0 9 -- Chart
1962 9 14 18 13.6 112.7 994 0 9 -- Chart
1962 9 15 00 14.2 112.2 994 0 9 -- Chart
1962 9 15 06 14.8 111.5 994 0 9 -- Chart
1962 9 15 12 15.4 110.7 994 0 9 -- Chart
1962 9 15 18 15.7 109.7 994 0 9 -- Chart
1962 9 16 00 16.2 108.8 994 0 9 -- Chart
1962 9 16 06 16.6 107.7 996 0 9 -- Chart
1962 9 16 12 16.8 106.8 998 0 2 -- Chart
1962 9 16 18 17.0 105.5 998 0 2 -- Chart
1962 9 17 00 17.0 103.1 998 0 2 -- Chart
1962 9 17 06 17.0 102.3 998 0 2 -- Chart
1962 9 17 12 17.2 101.5 998 0 2 -- Chart
1962 9 17 18 17.4 100.8 998 0 2 -- Chart
1962 9 18 00 17.7 100.1 998 0 2 -- Chart
1962 9 18 06 18.0 99.4 998 0 2 -- Chart
1962 9 18 12 18.3 98.8 1001 0 2 -- Chart
1962 9 18 18 18.6 98.0 1004 0 2 -- Chart
Japan Meteorological Agency Best Track Data | Correction Date : 1990-10-17
< Typhoon 196217 1962 Season Typhoon 196219 >

Help